Pine Mountain Club, California
Current Conditions -  °F | °C
As of 5:48 AM on Friday 19 Dec 2014 (Local Time) from KSDB Reporting Station
Clear Clear  
Wind Chill: 39°   Ceiling: Unl
Heat Index: 43°   Visibility: 10mi
Dew Point: 31°   Wind: 6mph
Humidity: 62%   Direction: 300°WNW
Pressure: 30.23"   Gusts: NA
Location:  34.9441°N, 119.155°W
Report Text: KSDB 191348Z AUTO 30005KT 10SM CLR 06/M01 A3023 RMK AO2 SLP221 T00611006
Loading
Personal Weather Stations






























Interactive Weather Map New forecast layout! Learn more

10-Day Weather Forecast

Advertisements
Track Severe Weather on mobile